Check out our new PWSWeather beta!
PWSweather.com
Personal Weather Stations
Station Observations
TAMWORTH
TamworthGB

TamworthGB

Lat: 52.64844, Lon: -1.68986

Elevation: 275

Station Type: Davis 6162C Vantage Pro2 Plus with daytime FARS permanently connected to a dedicated HP Mini 110-4116sa series netbook computer

http://tamworthweather.com

High Low Average
Temperature 54.9°F12.7°F 40.1°F4.5°F 46.7°F8.2°F
Dew Point 50.3°F10.2°F 33.7°F0.9°F 41.5°F5.3°F
Winds 15.0 mph -24.1 mph - 2.0 mph 3.2 mph 9.0 mph 14.5 mph
Wind Gusts 35.0 mph56.3 mph 4.0 mph6.4 mph 18.4 mph29.6 mph
Humidity 94% 70% 82%
Pressure 30.15 in1021.00 in 29.50 in999.00 in -
Precipitation 1.95 in49.50 in - -
Hour Temp Dew Point Humidity Winds Wind Gusts Pressure Precip Precip Rate Daily Precip Total
12:00 AM 41.7°F5.4°C 35.7°F2.1°C 79% 4.0 mph SW6.4 kmh SW 8.0 mph12.9 kmh 30.15 in1021.0 mb 0.00 in0.0 mm 0.00 in0.0 mm 0.00 in0.0 mm
12:10 AM 41.7°F5.4°C 36.0°F2.2°C 80% 5.0 mph SSW8.0 kmh SSW 7.0 mph11.3 kmh 30.13 in1020.3 mb 0.00 in0.0 mm 0.00 in0.0 mm 0.00 in0.0 mm
12:20 AM 41.5°F5.3°C 35.8°F2.1°C 80% 4.0 mph SSW6.4 kmh SSW 8.0 mph12.9 kmh 30.12 in1020.0 mb 0.00 in0.0 mm 0.00 in0.0 mm 0.00 in0.0 mm
12:30 AM 41.4°F5.2°C 36.0°F2.2°C 81% 4.0 mph S6.4 kmh S 7.0 mph11.3 kmh 30.14 in1020.7 mb 0.00 in0.0 mm 0.00 in0.0 mm 0.00 in0.0 mm
12:40 AM 41.2°F5.1°C 35.8°F2.1°C 81% 2.0 mph S3.2 kmh S 4.0 mph6.4 kmh 30.13 in1020.3 mb 0.00 in0.0 mm 0.00 in0.0 mm 0.00 in0.0 mm
12:50 AM 41.0°F5.0°C 35.9°F2.2°C 82% 2.0 mph S3.2 kmh S 5.0 mph8.0 kmh 30.13 in1020.3 mb 0.00 in0.0 mm 0.00 in0.0 mm 0.00 in0.0 mm
01:00 AM 41.0°F5.0°C 35.9°F2.2°C 82% 3.0 mph S4.8 kmh S 6.0 mph9.7 kmh 30.14 in1020.7 mb 0.00 in0.0 mm 0.00 in0.0 mm 0.00 in0.0 mm
01:10 AM 41.2°F5.1°C 36.1°F2.3°C 82% 3.0 mph S4.8 kmh S 7.0 mph11.3 kmh 30.13 in1020.3 mb 0.00 in0.0 mm 0.00 in0.0 mm 0.00 in0.0 mm
01:20 AM 41.2°F5.1°C 36.1°F2.3°C 82% 3.0 mph S4.8 kmh S 7.0 mph11.3 kmh 30.13 in1020.3 mb 0.00 in0.0 mm 0.00 in0.0 mm 0.00 in0.0 mm
01:30 AM 41.0°F5.0°C 35.9°F2.2°C 82% 3.0 mph S4.8 kmh S 7.0 mph11.3 kmh 30.12 in1020.0 mb 0.00 in0.0 mm 0.00 in0.0 mm 0.00 in0.0 mm
01:40 AM 41.0°F5.0°C 35.9°F2.2°C 82% 3.0 mph S4.8 kmh S 6.0 mph9.7 kmh 30.11 in1019.6 mb 0.00 in0.0 mm 0.00 in0.0 mm 0.00 in0.0 mm
01:50 AM 40.8°F4.9°C 35.1°F1.7°C 80% 3.0 mph S4.8 kmh S 7.0 mph11.3 kmh 30.09 in1019.0 mb 0.00 in0.0 mm 0.00 in0.0 mm 0.00 in0.0 mm
02:00 AM 41.2°F5.1°C 35.2°F1.8°C 79% 3.0 mph S4.8 kmh S 5.0 mph8.0 kmh 30.08 in1018.6 mb 0.00 in0.0 mm 0.00 in0.0 mm 0.00 in0.0 mm
02:10 AM 41.2°F5.1°C 34.5°F1.4°C 77% 3.0 mph S4.8 kmh S 6.0 mph9.7 kmh 30.07 in1018.3 mb 0.00 in0.0 mm 0.00 in0.0 mm 0.00 in0.0 mm
02:20 AM 41.4°F5.2°C 34.0°F1.1°C 75% 3.0 mph SSE4.8 kmh SSE 8.0 mph12.9 kmh 30.05 in1017.6 mb 0.00 in0.0 mm 0.00 in0.0 mm 0.00 in0.0 mm
02:30 AM 41.7°F5.4°C 34.0°F1.1°C 74% 4.0 mph SE6.4 kmh SE 11.0 mph17.7 kmh 30.04 in1017.3 mb 0.00 in0.0 mm 0.00 in0.0 mm 0.00 in0.0 mm
02:40 AM 41.7°F5.4°C 34.0°F1.1°C 74% 5.0 mph SE8.0 kmh SE 11.0 mph17.7 kmh 30.03 in1016.9 mb 0.00 in0.0 mm 0.00 in0.0 mm 0.00 in0.0 mm
02:50 AM 41.9°F5.5°C 33.9°F1.1°C 73% 5.0 mph SE8.0 kmh SE 11.0 mph17.7 kmh 30.02 in1016.6 mb 0.00 in0.0 mm 0.00 in0.0 mm 0.00 in0.0 mm
03:00 AM 42.1°F5.6°C 33.7°F0.9°C 72% 5.0 mph SE8.0 kmh SE 12.0 mph19.3 kmh 30.01 in1016.3 mb 0.00 in0.0 mm 0.00 in0.0 mm 0.00 in0.0 mm
03:10 AM 42.3°F5.7°C 33.9°F1.1°C 72% 7.0 mph SSE11.3 kmh SSE 14.0 mph22.5 kmh 30.01 in1016.3 mb 0.00 in0.0 mm 0.00 in0.0 mm 0.00 in0.0 mm
03:20 AM 42.1°F5.6°C 34.0°F1.1°C 73% 7.0 mph SE11.3 kmh SE 15.0 mph24.1 kmh 29.99 in1015.6 mb 0.00 in0.0 mm 0.00 in0.0 mm 0.00 in0.0 mm
03:30 AM 41.9°F5.5°C 34.2°F1.2°C 74% 6.0 mph SE9.7 kmh SE 14.0 mph22.5 kmh 29.98 in1015.2 mb 0.00 in0.0 mm 0.00 in0.0 mm 0.00 in0.0 mm
03:40 AM 41.7°F5.4°C 35.0°F1.7°C 77% 6.0 mph SE9.7 kmh SE 18.0 mph29.0 kmh 29.96 in1014.6 mb 0.00 in0.0 mm 0.00 in0.0 mm 0.00 in0.0 mm
03:50 AM 41.5°F5.3°C 35.5°F1.9°C 79% 7.0 mph SE11.3 kmh SE 18.0 mph29.0 kmh 29.95 in1014.2 mb 0.00 in0.0 mm 0.00 in0.0 mm 0.00 in0.0 mm
04:00 AM 41.5°F5.3°C 35.8°F2.1°C 80% 6.0 mph SSE9.7 kmh SSE 19.0 mph30.6 kmh 29.93 in1013.5 mb 0.00 in0.0 mm 0.00 in0.0 mm 0.00 in0.0 mm
04:10 AM 41.4°F5.2°C 36.3°F2.4°C 82% 9.0 mph SSE14.5 kmh SSE 23.0 mph37.0 kmh 29.93 in1013.5 mb 0.00 in0.0 mm 0.00 in0.0 mm 0.00 in0.0 mm
04:20 AM 41.2°F5.1°C 36.7°F2.6°C 84% 9.0 mph SSE14.5 kmh SSE 15.0 mph24.1 kmh 29.92 in1013.2 mb 0.00 in0.0 mm 0.00 in0.0 mm 0.00 in0.0 mm
04:30 AM 40.6°F4.8°C 36.8°F2.7°C 86% 9.0 mph SE14.5 kmh SE 17.0 mph27.4 kmh 29.90 in1012.5 mb 0.00 in0.0 mm 0.00 in0.0 mm 0.00 in0.0 mm
04:40 AM 40.5°F4.7°C 37.2°F2.9°C 88% 8.0 mph SE12.9 kmh SE 15.0 mph24.1 kmh 29.88 in1011.9 mb 0.00 in0.0 mm 0.00 in0.0 mm 0.00 in0.0 mm
04:50 AM 40.3°F4.6°C 37.3°F2.9°C 89% 9.0 mph SE14.5 kmh SE 21.0 mph33.8 kmh 29.86 in1011.2 mb 0.00 in0.0 mm 0.00 in0.0 mm 0.00 in0.0 mm
05:00 AM 40.1°F4.5°C 37.4°F3.0°C 90% 9.0 mph SE14.5 kmh SE 17.0 mph27.4 kmh 29.84 in1010.5 mb 0.00 in0.0 mm 0.00 in0.0 mm 0.00 in0.0 mm
05:10 AM 40.3°F4.6°C 37.9°F3.3°C 91% 9.0 mph SE14.5 kmh SE 16.0 mph25.7 kmh 29.83 in1010.2 mb 0.01 in0.3 mm 0.06 in1.5 mm 0.01 in0.3 mm
05:20 AM 40.5°F4.7°C 38.0°F3.3°C 91% 7.0 mph SE11.3 kmh SE 16.0 mph25.7 kmh 29.83 in1010.2 mb 0.01 in0.3 mm 0.00 in0.0 mm 0.01 in0.3 mm
05:30 AM 40.6°F4.8°C 38.5°F3.6°C 92% 6.0 mph SE9.7 kmh SE 16.0 mph25.7 kmh 29.83 in1010.2 mb 0.01 in0.3 mm 0.00 in0.0 mm 0.01 in0.3 mm
05:40 AM 40.6°F4.8°C 38.5°F3.6°C 92% 6.0 mph SSE9.7 kmh SSE 15.0 mph24.1 kmh 29.82 in1009.8 mb 0.01 in0.3 mm 0.00 in0.0 mm 0.01 in0.3 mm
05:50 AM 41.0°F5.0°C 39.1°F3.9°C 93% 6.0 mph SSE9.7 kmh SSE 11.0 mph17.7 kmh 29.81 in1009.5 mb 0.01 in0.3 mm 0.00 in0.0 mm 0.01 in0.3 mm
06:00 AM 41.2°F5.1°C 39.3°F4.1°C 93% 6.0 mph SSE9.7 kmh SSE 15.0 mph24.1 kmh 29.79 in1008.8 mb 0.02 in0.5 mm 0.01 in0.3 mm 0.02 in0.5 mm
06:10 AM 41.5°F5.3°C 39.7°F4.3°C 93% 7.0 mph SSE11.3 kmh SSE 13.0 mph20.9 kmh 29.77 in1008.1 mb 0.02 in0.5 mm 0.00 in0.0 mm 0.02 in0.5 mm
06:20 AM 42.1°F5.6°C 40.2°F4.6°C 93% 8.0 mph SSE12.9 kmh SSE 15.0 mph24.1 kmh 29.75 in1007.5 mb 0.03 in0.8 mm 0.06 in1.5 mm 0.04 in1.0 mm
06:30 AM 42.6°F5.9°C 40.7°F4.8°C 93% 8.0 mph SSE12.9 kmh SSE 15.0 mph24.1 kmh 29.73 in1006.8 mb 0.04 in1.0 mm 0.06 in1.5 mm 0.05 in1.3 mm
06:40 AM 43.3°F6.3°C 41.5°F5.3°C 93% 9.0 mph SSE14.5 kmh SSE 17.0 mph27.4 kmh 29.72 in1006.4 mb 0.05 in1.3 mm 0.06 in1.5 mm 0.06 in1.5 mm
06:50 AM 43.7°F6.5°C 41.8°F5.4°C 93% 9.0 mph S14.5 kmh S 15.0 mph24.1 kmh 29.71 in1006.1 mb 0.06 in1.5 mm 0.06 in1.5 mm 0.07 in1.8 mm
07:00 AM 44.2°F6.8°C 42.6°F5.9°C 94% 8.0 mph S12.9 kmh S 13.0 mph20.9 kmh 29.72 in1006.4 mb 0.06 in1.5 mm 0.00 in0.0 mm 0.08 in2.0 mm
07:10 AM 44.4°F6.9°C 42.8°F6.0°C 94% 7.0 mph S11.3 kmh S 16.0 mph25.7 kmh 29.71 in1006.1 mb 0.08 in2.0 mm 0.12 in3.0 mm 0.10 in2.5 mm
07:20 AM 44.4°F6.9°C 42.8°F6.0°C 94% 7.0 mph S11.3 kmh S 13.0 mph20.9 kmh 29.70 in1005.8 mb 0.09 in2.3 mm 0.06 in1.5 mm 0.13 in3.3 mm
07:30 AM 44.8°F7.1°C 43.2°F6.2°C 94% 7.0 mph S11.3 kmh S 13.0 mph20.9 kmh 29.69 in1005.4 mb 0.09 in2.3 mm 0.00 in0.0 mm 0.14 in3.6 mm
07:40 AM 45.1°F7.3°C 43.5°F6.4°C 94% 6.0 mph S9.7 kmh S 13.0 mph20.9 kmh 29.68 in1005.1 mb 0.11 in2.8 mm 0.12 in3.0 mm 0.17 in4.3 mm
07:50 AM 46.0°F7.8°C 44.4°F6.9°C 94% 6.0 mph S9.7 kmh S 14.0 mph22.5 kmh 29.67 in1004.7 mb 0.11 in2.8 mm 0.00 in0.0 mm 0.18 in4.6 mm
08:00 AM 47.1°F8.4°C 45.5°F7.5°C 94% 7.0 mph S11.3 kmh S 17.0 mph27.4 kmh 29.66 in1004.4 mb 0.12 in3.0 mm 0.01 in0.3 mm 0.20 in5.1 mm
08:10 AM 47.8°F8.8°C 46.2°F7.9°C 94% 9.0 mph SSW14.5 kmh SSW 16.0 mph25.7 kmh 29.66 in1004.4 mb 0.11 in2.8 mm 0.00 in0.0 mm 0.21 in5.3 mm
08:20 AM 48.2°F9.0°C 46.6°F8.1°C 94% 9.0 mph SSW14.5 kmh SSW 17.0 mph27.4 kmh 29.66 in1004.4 mb 0.09 in2.3 mm 0.00 in0.0 mm 0.22 in5.6 mm
08:30 AM 48.4°F9.1°C 46.7°F8.2°C 94% 9.0 mph SSW14.5 kmh SSW 17.0 mph27.4 kmh 29.65 in1004.1 mb 0.09 in2.3 mm 0.00 in0.0 mm 0.23 in5.8 mm
08:40 AM 48.6°F9.2°C 46.9°F8.3°C 94% 10.0 mph SSW16.1 kmh SSW 17.0 mph27.4 kmh 29.64 in1003.7 mb 0.06 in1.5 mm 0.00 in0.0 mm 0.23 in5.8 mm
08:50 AM 48.7°F9.3°C 47.1°F8.4°C 94% 9.0 mph SSW14.5 kmh SSW 18.0 mph29.0 kmh 29.64 in1003.7 mb 0.06 in1.5 mm 0.00 in0.0 mm 0.24 in6.1 mm
09:00 AM 48.7°F9.3°C 47.1°F8.4°C 94% 10.0 mph SW16.1 kmh SW 20.0 mph32.2 kmh 29.63 in1003.4 mb 0.05 in1.3 mm 0.00 in0.0 mm 0.24 in6.1 mm
09:10 AM 48.9°F9.4°C 47.3°F8.5°C 94% 10.0 mph SW16.1 kmh SW 21.0 mph33.8 kmh 29.63 in1003.4 mb 0.05 in1.3 mm 0.00 in0.0 mm 0.26 in6.6 mm
09:20 AM 48.9°F9.4°C 47.0°F8.3°C 93% 11.0 mph SW17.7 kmh SW 19.0 mph30.6 kmh 29.63 in1003.4 mb 0.05 in1.3 mm 0.00 in0.0 mm 0.27 in6.9 mm
09:30 AM 49.1°F9.5°C 47.2°F8.4°C 93% 10.0 mph SW16.1 kmh SW 20.0 mph32.2 kmh 29.62 in1003.0 mb 0.06 in1.5 mm 0.06 in1.5 mm 0.28 in7.1 mm
09:40 AM 49.1°F9.5°C 47.2°F8.4°C 93% 11.0 mph SW17.7 kmh SW 22.0 mph35.4 kmh 29.62 in1003.0 mb 0.06 in1.5 mm 0.00 in0.0 mm 0.30 in7.6 mm
09:50 AM 49.3°F9.6°C 47.3°F8.5°C 93% 11.0 mph SW17.7 kmh SW 23.0 mph37.0 kmh 29.61 in1002.7 mb 0.06 in1.5 mm 0.00 in0.0 mm 0.31 in7.9 mm
10:00 AM 49.3°F9.6°C 47.3°F8.5°C 93% 11.0 mph SW17.7 kmh SW 21.0 mph33.8 kmh 29.61 in1002.7 mb 0.07 in1.8 mm 0.01 in0.3 mm 0.31 in7.9 mm
10:10 AM 49.5°F9.7°C 47.5°F8.6°C 93% 11.0 mph SW17.7 kmh SW 21.0 mph33.8 kmh 29.60 in1002.4 mb 0.06 in1.5 mm 0.00 in0.0 mm 0.31 in7.9 mm
10:20 AM 49.5°F9.7°C 47.5°F8.6°C 93% 12.0 mph SSW19.3 kmh SSW 26.0 mph41.8 kmh 29.58 in1001.7 mb 0.05 in1.3 mm 0.00 in0.0 mm 0.32 in8.1 mm
10:30 AM 49.6°F9.8°C 47.7°F8.7°C 93% 13.0 mph SSW20.9 kmh SSW 26.0 mph41.8 kmh 29.58 in1001.7 mb 0.04 in1.0 mm 0.00 in0.0 mm 0.32 in8.1 mm
10:40 AM 49.6°F9.8°C 47.7°F8.7°C 93% 12.0 mph SSW19.3 kmh SSW 21.0 mph33.8 kmh 29.57 in1001.4 mb 0.02 in0.5 mm 0.00 in0.0 mm 0.32 in8.1 mm
10:50 AM 49.8°F9.9°C 47.9°F8.8°C 93% 12.0 mph SW19.3 kmh SW 22.0 mph35.4 kmh 29.57 in1001.4 mb 0.02 in0.5 mm 0.00 in0.0 mm 0.32 in8.1 mm
11:00 AM 50.2°F10.1°C 47.9°F8.8°C 92% 14.0 mph SSW22.5 kmh SSW 28.0 mph45.1 kmh 29.56 in1001.0 mb 0.01 in0.3 mm 0.00 in0.0 mm 0.32 in8.1 mm
11:10 AM 50.4°F10.2°C 48.1°F8.9°C 92% 13.0 mph SSW20.9 kmh SSW 27.0 mph43.5 kmh 29.55 in1000.7 mb 0.01 in0.3 mm 0.00 in0.0 mm 0.32 in8.1 mm
11:20 AM 50.5°F10.3°C 48.3°F9.1°C 92% 11.0 mph SW17.7 kmh SW 24.0 mph38.6 kmh 29.55 in1000.7 mb 0.00 in0.0 mm 0.00 in0.0 mm 0.32 in8.1 mm
11:30 AM 50.9°F10.5°C 48.7°F9.3°C 92% 12.0 mph SW19.3 kmh SW 25.0 mph40.2 kmh 29.56 in1001.0 mb 0.00 in0.0 mm 0.00 in0.0 mm 0.32 in8.1 mm
11:40 AM 51.3°F10.7°C 48.7°F9.3°C 91% 12.0 mph SW19.3 kmh SW 25.0 mph40.2 kmh 29.56 in1001.0 mb 0.00 in0.0 mm 0.00 in0.0 mm 0.32 in8.1 mm
11:50 AM 51.6°F10.9°C 48.8°F9.3°C 90% 12.0 mph SW19.3 kmh SW 26.0 mph41.8 kmh 29.56 in1001.0 mb 0.00 in0.0 mm 0.00 in0.0 mm 0.32 in8.1 mm
12:00 PM 52.0°F11.1°C 49.1°F9.5°C 90% 12.0 mph SW19.3 kmh SW 23.0 mph37.0 kmh 29.55 in1000.7 mb 0.00 in0.0 mm 0.00 in0.0 mm 0.32 in8.1 mm
12:10 PM 52.3°F11.3°C 49.2°F9.6°C 89% 11.0 mph SW17.7 kmh SW 24.0 mph38.6 kmh 29.55 in1000.7 mb 0.00 in0.0 mm 0.00 in0.0 mm 0.32 in8.1 mm
12:20 PM 52.3°F11.3°C 49.2°F9.6°C 89% 11.0 mph SW17.7 kmh SW 21.0 mph33.8 kmh 29.53 in1000.0 mb 0.00 in0.0 mm 0.00 in0.0 mm 0.32 in8.1 mm
12:30 PM 52.7°F11.5°C 49.5°F9.7°C 89% 11.0 mph SW17.7 kmh SW 24.0 mph38.6 kmh 29.53 in1000.0 mb 0.00 in0.0 mm 0.00 in0.0 mm 0.32 in8.1 mm
12:40 PM 53.2°F11.8°C 49.8°F9.9°C 88% 11.0 mph SW17.7 kmh SW 20.0 mph32.2 kmh 29.52 in999.7 mb 0.00 in0.0 mm 0.00 in0.0 mm 0.32 in8.1 mm
12:50 PM 53.4°F11.9°C 49.6°F9.8°C 87% 11.0 mph SW17.7 kmh SW 26.0 mph41.8 kmh 29.52 in999.7 mb 0.00 in0.0 mm 0.00 in0.0 mm 0.32 in8.1 mm
01:00 PM 54.0°F12.2°C 49.9°F9.9°C 86% 13.0 mph SW20.9 kmh SW 25.0 mph40.2 kmh 29.52 in999.7 mb 0.00 in0.0 mm 0.00 in0.0 mm 0.32 in8.1 mm
01:10 PM 54.1°F12.3°C 50.0°F10.0°C 86% 12.0 mph SW19.3 kmh SW 23.0 mph37.0 kmh 29.51 in999.3 mb 0.00 in0.0 mm 0.00 in0.0 mm 0.32 in8.1 mm
01:20 PM 54.7°F12.6°C 50.3°F10.2°C 85% 12.0 mph WSW19.3 kmh WSW 23.0 mph37.0 kmh 29.51 in999.3 mb 0.00 in0.0 mm 0.00 in0.0 mm 0.32 in8.1 mm
01:30 PM 54.9°F12.7°C 50.1°F10.1°C 84% 12.0 mph WSW19.3 kmh WSW 28.0 mph45.1 kmh 29.50 in999.0 mb 0.00 in0.0 mm 0.00 in0.0 mm 0.32 in8.1 mm
01:40 PM 54.9°F12.7°C 49.8°F9.9°C 83% 13.0 mph WSW20.9 kmh WSW 28.0 mph45.1 kmh 29.50 in999.0 mb 0.00 in0.0 mm 0.00 in0.0 mm 0.32 in8.1 mm
01:50 PM 54.9°F12.7°C 49.8°F9.9°C 83% 12.0 mph SW19.3 kmh SW 28.0 mph45.1 kmh 29.50 in999.0 mb 0.00 in0.0 mm 0.00 in0.0 mm 0.32 in8.1 mm
02:00 PM 54.9°F12.7°C 49.5°F9.7°C 82% 13.0 mph WSW20.9 kmh WSW 31.0 mph49.9 kmh 29.50 in999.0 mb 0.00 in0.0 mm 0.00 in0.0 mm 0.32 in8.1 mm
02:10 PM 54.9°F12.7°C 49.5°F9.7°C 82% 13.0 mph WSW20.9 kmh WSW 30.0 mph48.3 kmh 29.50 in999.0 mb 0.00 in0.0 mm 0.00 in0.0 mm 0.32 in8.1 mm
02:20 PM 54.7°F12.6°C 49.3°F9.6°C 82% 13.0 mph WSW20.9 kmh WSW 24.0 mph38.6 kmh 29.50 in999.0 mb 0.00 in0.0 mm 0.00 in0.0 mm 0.32 in8.1 mm
02:30 PM 54.5°F12.5°C 49.1°F9.5°C 82% 12.0 mph WSW19.3 kmh WSW 23.0 mph37.0 kmh 29.50 in999.0 mb 0.00 in0.0 mm 0.00 in0.0 mm 0.32 in8.1 mm
02:40 PM 54.9°F12.7°C 48.8°F9.3°C 80% 11.0 mph WSW17.7 kmh WSW 22.0 mph35.4 kmh 29.50 in999.0 mb 0.00 in0.0 mm 0.00 in0.0 mm 0.32 in8.1 mm
02:50 PM 54.9°F12.7°C 48.5°F9.2°C 79% 12.0 mph WSW19.3 kmh WSW 30.0 mph48.3 kmh 29.51 in999.3 mb 0.00 in0.0 mm 0.00 in0.0 mm 0.32 in8.1 mm
03:00 PM 54.9°F12.7°C 47.8°F8.8°C 77% 13.0 mph WSW20.9 kmh WSW 23.0 mph37.0 kmh 29.51 in999.3 mb 0.00 in0.0 mm 0.00 in0.0 mm 0.32 in8.1 mm
03:10 PM 54.7°F12.6°C 47.6°F8.7°C 77% 13.0 mph WSW20.9 kmh WSW 23.0 mph37.0 kmh 29.51 in999.3 mb 0.00 in0.0 mm 0.00 in0.0 mm 0.32 in8.1 mm
03:20 PM 54.7°F12.6°C 47.3°F8.5°C 76% 13.0 mph WSW20.9 kmh WSW 25.0 mph40.2 kmh 29.51 in999.3 mb 0.00 in0.0 mm 0.00 in0.0 mm 0.32 in8.1 mm
03:30 PM 54.7°F12.6°C 47.3°F8.5°C 76% 13.0 mph WSW20.9 kmh WSW 24.0 mph38.6 kmh 29.51 in999.3 mb 0.00 in0.0 mm 0.00 in0.0 mm 0.32 in8.1 mm
03:40 PM 54.5°F12.5°C 47.1°F8.4°C 76% 11.0 mph WSW17.7 kmh WSW 23.0 mph37.0 kmh 29.51 in999.3 mb 0.00 in0.0 mm 0.00 in0.0 mm 0.32 in8.1 mm
03:50 PM 54.1°F12.3°C 45.7°F7.6°C 73% 14.0 mph WSW22.5 kmh WSW 35.0 mph56.3 kmh 29.52 in999.7 mb 0.00 in0.0 mm 0.00 in0.0 mm 0.32 in8.1 mm
04:00 PM 54.0°F12.2°C 45.1°F7.3°C 72% 14.0 mph WSW22.5 kmh WSW 31.0 mph49.9 kmh 29.52 in999.7 mb 0.00 in0.0 mm 0.00 in0.0 mm 0.32 in8.1 mm
04:10 PM 53.4°F11.9°C 45.0°F7.2°C 73% 15.0 mph WSW24.1 kmh WSW 26.0 mph41.8 kmh 29.52 in999.7 mb 0.00 in0.0 mm 0.00 in0.0 mm 0.32 in8.1 mm
04:20 PM 53.1°F11.7°C 44.6°F7.0°C 73% 14.0 mph WSW22.5 kmh WSW 27.0 mph43.5 kmh 29.52 in999.7 mb 0.00 in0.0 mm 0.00 in0.0 mm 0.32 in8.1 mm
04:30 PM 52.9°F11.6°C 44.5°F6.9°C 73% 15.0 mph WSW24.1 kmh WSW 29.0 mph46.7 kmh 29.52 in999.7 mb 0.00 in0.0 mm 0.00 in0.0 mm 0.32 in8.1 mm
04:40 PM 52.5°F11.4°C 44.5°F6.9°C 74% 13.0 mph WSW20.9 kmh WSW 23.0 mph37.0 kmh 29.53 in1000.0 mb 0.00 in0.0 mm 0.00 in0.0 mm 0.32 in8.1 mm
04:50 PM 52.2°F11.2°C 44.5°F6.9°C 75% 11.0 mph W17.7 kmh W 20.0 mph32.2 kmh 29.54 in1000.3 mb 0.00 in0.0 mm 0.00 in0.0 mm 0.32 in8.1 mm
05:00 PM 51.6°F10.9°C 43.2°F6.2°C 73% 12.0 mph WSW19.3 kmh WSW 28.0 mph45.1 kmh 29.54 in1000.3 mb 0.00 in0.0 mm 0.00 in0.0 mm 0.32 in8.1 mm
05:10 PM 51.3°F10.7°C 42.2°F5.7°C 71% 13.0 mph WSW20.9 kmh WSW 27.0 mph43.5 kmh 29.55 in1000.7 mb 0.00 in0.0 mm 0.00 in0.0 mm 0.32 in8.1 mm
05:20 PM 50.7°F10.4°C 41.3°F5.2°C 70% 14.0 mph WSW22.5 kmh WSW 28.0 mph45.1 kmh 29.55 in1000.7 mb 0.00 in0.0 mm 0.00 in0.0 mm 0.32 in8.1 mm
05:30 PM 50.2°F10.1°C 41.1°F5.1°C 71% 14.0 mph WSW22.5 kmh WSW 28.0 mph45.1 kmh 29.56 in1001.0 mb 0.00 in0.0 mm 0.00 in0.0 mm 0.32 in8.1 mm
05:40 PM 49.6°F9.8°C 41.0°F5.0°C 72% 13.0 mph W20.9 kmh W 26.0 mph41.8 kmh 29.57 in1001.4 mb 0.00 in0.0 mm 0.00 in0.0 mm 0.32 in8.1 mm
05:50 PM 49.1°F9.5°C 40.8°F4.9°C 73% 12.0 mph W19.3 kmh W 23.0 mph37.0 kmh 29.58 in1001.7 mb 0.00 in0.0 mm 0.00 in0.0 mm 0.32 in8.1 mm
06:00 PM 48.7°F9.3°C 40.1°F4.5°C 72% 12.0 mph WSW19.3 kmh WSW 23.0 mph37.0 kmh 29.58 in1001.7 mb 0.00 in0.0 mm 0.00 in0.0 mm 0.32 in8.1 mm
06:10 PM 48.4°F9.1°C 40.5°F4.7°C 74% 10.0 mph W16.1 kmh W 20.0 mph32.2 kmh 29.59 in1002.0 mb 0.00 in0.0 mm 0.00 in0.0 mm 0.32 in8.1 mm
06:20 PM 47.5°F8.6°C 40.3°F4.6°C 76% 9.0 mph W14.5 kmh W 20.0 mph32.2 kmh 29.60 in1002.4 mb 0.00 in0.0 mm 0.00 in0.0 mm 0.32 in8.1 mm
06:30 PM 46.9°F8.3°C 38.7°F3.7°C 73% 10.0 mph W16.1 kmh W 25.0 mph40.2 kmh 29.61 in1002.7 mb 0.00 in0.0 mm 0.00 in0.0 mm 0.32 in8.1 mm
06:40 PM 46.8°F8.2°C 37.9°F3.3°C 71% 11.0 mph W17.7 kmh W 25.0 mph40.2 kmh 29.61 in1002.7 mb 0.00 in0.0 mm 0.00 in0.0 mm 0.32 in8.1 mm
06:50 PM 46.8°F8.2°C 38.2°F3.4°C 72% 11.0 mph W17.7 kmh W 18.0 mph29.0 kmh 29.62 in1003.0 mb 0.00 in0.0 mm 0.00 in0.0 mm 0.32 in8.1 mm
07:00 PM 46.4°F8.0°C 37.9°F3.3°C 72% 8.0 mph W12.9 kmh W 15.0 mph24.1 kmh 29.61 in1002.7 mb 0.00 in0.0 mm 0.00 in0.0 mm 0.32 in8.1 mm
07:10 PM 46.2°F7.9°C 37.7°F3.2°C 72% 8.0 mph WSW12.9 kmh WSW 21.0 mph33.8 kmh 29.62 in1003.0 mb 0.00 in0.0 mm 0.00 in0.0 mm 0.32 in8.1 mm
07:20 PM 45.9°F7.7°C 36.6°F2.6°C 70% 10.0 mph W16.1 kmh W 20.0 mph32.2 kmh 29.62 in1003.0 mb 0.00 in0.0 mm 0.00 in0.0 mm 0.32 in8.1 mm
07:30 PM 45.5°F7.5°C 36.6°F2.6°C 71% 9.0 mph W14.5 kmh W 17.0 mph27.4 kmh 29.62 in1003.0 mb 0.00 in0.0 mm 0.00 in0.0 mm 0.32 in8.1 mm
07:40 PM 45.1°F7.3°C 36.6°F2.6°C 72% 7.0 mph W11.3 kmh W 12.0 mph19.3 kmh 29.62 in1003.0 mb 0.00 in0.0 mm 0.00 in0.0 mm 0.32 in8.1 mm
07:50 PM 45.0°F7.2°C 36.8°F2.7°C 73% 6.0 mph W9.7 kmh W 12.0 mph19.3 kmh 29.62 in1003.0 mb 0.00 in0.0 mm 0.00 in0.0 mm 0.32 in8.1 mm
08:00 PM 45.0°F7.2°C 37.2°F2.9°C 74% 6.0 mph WSW9.7 kmh WSW 16.0 mph25.7 kmh 29.62 in1003.0 mb 0.00 in0.0 mm 0.00 in0.0 mm 0.32 in8.1 mm
08:10 PM 44.6°F7.0°C 37.5°F3.1°C 76% 8.0 mph WSW12.9 kmh WSW 13.0 mph20.9 kmh 29.62 in1003.0 mb 0.00 in0.0 mm 0.00 in0.0 mm 0.32 in8.1 mm
08:20 PM 44.4°F6.9°C 37.3°F2.9°C 76% 7.0 mph WSW11.3 kmh WSW 17.0 mph27.4 kmh 29.62 in1003.0 mb 0.00 in0.0 mm 0.00 in0.0 mm 0.32 in8.1 mm
08:30 PM 44.6°F7.0°C 37.5°F3.1°C 76% 8.0 mph WSW12.9 kmh WSW 18.0 mph29.0 kmh 29.62 in1003.0 mb 0.00 in0.0 mm 0.00 in0.0 mm 0.32 in8.1 mm
08:40 PM 44.4°F6.9°C 37.3°F2.9°C 76% 8.0 mph WSW12.9 kmh WSW 17.0 mph27.4 kmh 29.62 in1003.0 mb 0.00 in0.0 mm 0.00 in0.0 mm 0.32 in8.1 mm
08:50 PM 44.4°F6.9°C 37.0°F2.8°C 75% 8.0 mph WSW12.9 kmh WSW 16.0 mph25.7 kmh 29.61 in1002.7 mb 0.00 in0.0 mm 0.00 in0.0 mm 0.32 in8.1 mm
09:00 PM 44.2°F6.8°C 36.8°F2.7°C 75% 9.0 mph WSW14.5 kmh WSW 14.0 mph22.5 kmh 29.61 in1002.7 mb 0.00 in0.0 mm 0.00 in0.0 mm 0.32 in8.1 mm
09:10 PM 44.2°F6.8°C 36.8°F2.7°C 75% 7.0 mph WSW11.3 kmh WSW 13.0 mph20.9 kmh 29.62 in1003.0 mb 0.00 in0.0 mm 0.00 in0.0 mm 0.32 in8.1 mm
09:20 PM 44.1°F6.7°C 36.6°F2.6°C 75% 7.0 mph WSW11.3 kmh WSW 13.0 mph20.9 kmh 29.61 in1002.7 mb 0.00 in0.0 mm 0.00 in0.0 mm 0.32 in8.1 mm
09:30 PM 43.9°F6.6°C 37.1°F2.8°C 77% 6.0 mph SW9.7 kmh SW 10.0 mph16.1 kmh 29.62 in1003.0 mb 0.00 in0.0 mm 0.00 in0.0 mm 0.32 in8.1 mm
09:40 PM 43.7°F6.5°C 37.3°F2.9°C 78% 5.0 mph WSW8.0 kmh WSW 11.0 mph17.7 kmh 29.61 in1002.7 mb 0.00 in0.0 mm 0.00 in0.0 mm 0.32 in8.1 mm
09:50 PM 43.9°F6.6°C 37.5°F3.1°C 78% 7.0 mph WSW11.3 kmh WSW 20.0 mph32.2 kmh 29.62 in1003.0 mb 0.00 in0.0 mm 0.00 in0.0 mm 0.32 in8.1 mm
10:00 PM 44.1°F6.7°C 38.0°F3.3°C 79% 9.0 mph W14.5 kmh W 13.0 mph20.9 kmh 29.61 in1002.7 mb 0.00 in0.0 mm 0.00 in0.0 mm 0.32 in8.1 mm
10:10 PM 43.9°F6.6°C 37.5°F3.1°C 78% 7.0 mph WSW11.3 kmh WSW 15.0 mph24.1 kmh 29.61 in1002.7 mb 0.00 in0.0 mm 0.00 in0.0 mm 0.32 in8.1 mm
10:20 PM 43.7°F6.5°C 37.6°F3.1°C 79% 8.0 mph WSW12.9 kmh WSW 15.0 mph24.1 kmh 29.61 in1002.7 mb 0.00 in0.0 mm 0.00 in0.0 mm 0.32 in8.1 mm
10:30 PM 43.5°F6.4°C 37.4°F3.0°C 79% 8.0 mph WSW12.9 kmh WSW 17.0 mph27.4 kmh 29.61 in1002.7 mb 0.00 in0.0 mm 0.00 in0.0 mm 0.32 in8.1 mm
10:40 PM 43.3°F6.3°C 37.3°F2.9°C 79% 8.0 mph WSW12.9 kmh WSW 18.0 mph29.0 kmh 29.61 in1002.7 mb 0.00 in0.0 mm 0.00 in0.0 mm 0.32 in8.1 mm
10:50 PM 43.3°F6.3°C 36.9°F2.7°C 78% 9.0 mph WSW14.5 kmh WSW 17.0 mph27.4 kmh 29.61 in1002.7 mb 0.00 in0.0 mm 0.00 in0.0 mm 0.32 in8.1 mm
11:00 PM 43.3°F6.3°C 36.9°F2.7°C 78% 9.0 mph WSW14.5 kmh WSW 21.0 mph33.8 kmh 29.61 in1002.7 mb 0.00 in0.0 mm 0.00 in0.0 mm 0.32 in8.1 mm
11:10 PM 43.3°F6.3°C 36.6°F2.6°C 77% 10.0 mph WSW16.1 kmh WSW 20.0 mph32.2 kmh 29.61 in1002.7 mb 0.00 in0.0 mm 0.00 in0.0 mm 0.32 in8.1 mm
11:20 PM 43.2°F6.2°C 36.4°F2.4°C 77% 9.0 mph WSW14.5 kmh WSW 18.0 mph29.0 kmh 29.61 in1002.7 mb 0.00 in0.0 mm 0.00 in0.0 mm 0.32 in8.1 mm
11:30 PM 43.0°F6.1°C 35.9°F2.2°C 76% 9.0 mph WSW14.5 kmh WSW 20.0 mph32.2 kmh 29.61 in1002.7 mb 0.00 in0.0 mm 0.00 in0.0 mm 0.32 in8.1 mm
11:40 PM 42.6°F5.9°C 35.6°F2.0°C 76% 10.0 mph WSW16.1 kmh WSW 16.0 mph25.7 kmh 29.61 in1002.7 mb 0.00 in0.0 mm 0.00 in0.0 mm 0.32 in8.1 mm
11:50 PM 42.4°F5.8°C 35.7°F2.1°C 77% 9.0 mph WSW14.5 kmh WSW 18.0 mph29.0 kmh 29.60 in1002.4 mb 0.00 in0.0 mm 0.00 in0.0 mm 0.32 in8.1 mm